Time,TemperatureF,DewpointF,PressureIn,WindDirection,WindDirectionDegrees,WindSpeedMPH,WindSpeedGustMPH,Humidity,HourlyPrecipIn,Conditions,Clouds,dailyrainin,SolarRadiationWatts/m^2,SoftwareType,DateUTC
2013-05-25 00:02:00,77.0,42.0,29.99,South,175,6.0,10.0,28,-99.99,,,-99.99,0.000000,,2013-05-25 06:02:00,
2013-05-25 00:12:00,74.0,42.0,30.00,ESE,107,9.0,14.0,32,-99.99,,,-99.99,0.000000,,2013-05-25 06:12:00,
2013-05-25 00:21:00,75.0,44.0,30.01,ESE,117,8.0,13.0,32,-99.99,,,-99.99,0.000000,,2013-05-25 06:21:00,
2013-05-25 00:32:00,75.0,44.0,30.01,ESE,117,8.0,13.0,32,-99.99,,,-99.99,0.000000,,2013-05-25 06:32:00,
2013-05-25 00:42:00,75.0,44.0,30.01,ESE,117,8.0,13.0,32,-99.99,,,-99.99,0.000000,,2013-05-25 06:42:00,
2013-05-25 00:52:00,75.0,48.0,30.01,SE,137,5.0,13.0,38,-99.99,,,-99.99,0.000000,,2013-05-25 06:52:00,
2013-05-25 01:01:00,75.0,48.0,30.01,SE,137,5.0,13.0,38,-99.99,,,-99.99,0.000000,,2013-05-25 07:01:00,
2013-05-25 01:11:00,74.0,49.0,30.02,SSE,158,6.0,12.0,40,-99.99,,,-99.99,0.000000,,2013-05-25 07:11:00,
2013-05-25 01:21:00,74.0,49.0,30.03,South,176,6.0,13.0,40,-99.99,,,-99.99,0.000000,,2013-05-25 07:21:00,
2013-05-25 01:32:00,73.0,48.0,30.04,South,188,5.0,11.0,41,-99.99,,,-99.99,0.000000,,2013-05-25 07:32:00,
2013-05-25 01:42:00,73.0,48.0,30.04,South,188,5.0,11.0,41,-99.99,,,-99.99,0.000000,,2013-05-25 07:42:00,
2013-05-25 01:52:00,73.0,48.0,30.04,SSW,201,3.0,8.0,41,-99.99,,,-99.99,0.000000,,2013-05-25 07:52:00,
2013-05-25 02:02:00,73.0,48.0,30.04,SSW,201,3.0,8.0,41,-99.99,,,-99.99,0.000000,,2013-05-25 08:02:00,
2013-05-25 02:11:00,72.0,48.0,30.05,SSE,162,5.0,8.0,42,-99.99,,,-99.99,0.000000,,2013-05-25 08:11:00,
2013-05-25 02:22:00,72.0,49.0,30.05,SE,142,6.0,12.0,43,-99.99,,,-99.99,0.000000,,2013-05-25 08:22:00,
2013-05-25 02:32:00,72.0,49.0,30.05,ESE,122,8.0,10.0,44,-99.99,,,-99.99,0.000000,,2013-05-25 08:32:00,
2013-05-25 02:42:00,72.0,49.0,30.05,ESE,122,8.0,10.0,44,-99.99,,,-99.99,0.000000,,2013-05-25 08:42:00,
2013-05-25 02:52:00,72.0,50.0,30.05,SE,142,4.0,9.0,46,-99.99,,,-99.99,0.000000,,2013-05-25 08:52:00,
2013-05-25 03:02:00,72.0,50.0,30.05,SE,142,4.0,9.0,46,-99.99,,,-99.99,0.000000,,2013-05-25 09:02:00,
2013-05-25 03:11:00,72.0,51.0,30.05,SE,141,1.0,6.0,47,-99.99,,,-99.99,0.000000,,2013-05-25 09:11:00,
2013-05-25 03:21:00,70.0,51.0,30.05,ESE,102,5.0,9.0,50,-99.99,,,-99.99,0.000000,,2013-05-25 09:21:00,
2013-05-25 03:33:00,70.0,51.0,30.05,ESE,102,5.0,9.0,50,-99.99,,,-99.99,0.000000,,2013-05-25 09:33:00,
2013-05-25 03:43:00,70.0,51.0,30.05,East,95,5.0,8.0,52,-99.99,,,-99.99,0.000000,,2013-05-25 09:43:00,
2013-05-25 03:53:00,69.0,52.0,30.05,East,91,2.0,5.0,53,-99.99,,,-99.99,0.000000,,2013-05-25 09:53:00,
2013-05-25 04:02:00,69.0,52.0,30.05,East,91,2.0,5.0,53,-99.99,,,-99.99,0.000000,,2013-05-25 10:02:00,
2013-05-25 04:12:00,70.0,52.0,30.05,South,171,1.0,4.0,53,-99.99,,,-99.99,0.000000,,2013-05-25 10:12:00,
2013-05-25 04:22:00,69.0,51.0,30.05,South,189,2.0,4.0,52,-99.99,,,-99.99,0.000000,,2013-05-25 10:22:00,
2013-05-25 04:33:00,68.0,51.0,30.05,SW,221,5.0,8.0,54,-99.99,,,-99.99,0.000000,,2013-05-25 10:33:00,
2013-05-25 04:42:00,68.0,51.0,30.05,SW,221,5.0,8.0,54,-99.99,,,-99.99,0.000000,,2013-05-25 10:42:00,
2013-05-25 04:52:00,68.0,50.0,30.05,SW,225,4.0,7.0,53,-99.99,,,-99.99,0.000000,,2013-05-25 10:52:00,
2013-05-25 05:02:00,68.0,50.0,30.05,SW,225,4.0,7.0,53,-99.99,,,-99.99,0.000000,,2013-05-25 11:02:00,
2013-05-25 05:12:00,67.0,50.0,30.05,SW,225,0.0,2.0,54,-99.99,,,-99.99,0.000000,,2013-05-25 11:12:00,
2013-05-25 05:22:00,68.0,51.0,30.05,SE,137,1.0,6.0,55,-99.99,,,-99.99,0.000000,,2013-05-25 11:22:00,
2013-05-25 05:32:00,68.0,51.0,30.05,SE,137,1.0,6.0,55,-99.99,,,-99.99,0.000000,,2013-05-25 11:32:00,
2013-05-25 05:42:00,68.0,50.0,30.05,SE,132,3.0,6.0,53,-99.99,,,-99.99,0.000000,,2013-05-25 11:42:00,
2013-05-25 05:52:00,65.0,50.0,30.05,North,0,0.0,0.0,57,-99.99,,,-99.99,0.000000,,2013-05-25 11:52:00,
2013-05-25 06:01:00,65.0,50.0,30.05,North,0,0.0,0.0,57,-99.99,,,-99.99,0.000000,,2013-05-25 12:01:00,
2013-05-25 06:12:00,66.0,50.0,30.05,South,185,0.0,0.0,57,-99.99,,,-99.99,0.000000,,2013-05-25 12:12:00,
2013-05-25 06:22:00,67.0,51.0,30.05,SSE,149,2.0,4.0,56,-99.99,,,-99.99,0.700000,,2013-05-25 12:22:00,
2013-05-25 06:32:00,67.0,51.0,30.05,SSE,149,2.0,4.0,56,-99.99,,,-99.99,0.700000,,2013-05-25 12:32:00,
2013-05-25 06:42:00,66.0,51.0,30.05,SE,146,3.0,6.0,57,-99.99,,,-99.99,4.880000,,2013-05-25 12:42:00,
2013-05-25 06:52:00,66.0,51.0,30.05,SE,132,5.0,7.0,58,-99.99,,,-99.99,13.950000,,2013-05-25 12:52:00,
2013-05-25 07:02:00,66.0,51.0,30.05,SE,132,5.0,7.0,58,-99.99,,,-99.99,13.950000,,2013-05-25 13:02:00,
2013-05-25 07:11:00,66.0,51.0,30.06,ESE,118,6.0,7.0,57,-99.99,,,-99.99,40.450001,,2013-05-25 13:11:00,
2013-05-25 07:22:00,67.0,51.0,30.06,ESE,115,6.0,8.0,58,-99.99,,,-99.99,100.419998,,2013-05-25 13:22:00,
2013-05-25 07:32:00,67.0,51.0,30.06,ESE,115,6.0,8.0,58,-99.99,,,-99.99,100.419998,,2013-05-25 13:32:00,
2013-05-25 07:42:00,68.0,52.0,30.07,ESE,115,6.0,9.0,56,-99.99,,,-99.99,145.740005,,2013-05-25 13:42:00,
2013-05-25 07:52:00,70.0,52.0,30.07,ESE,114,6.0,8.0,53,-99.99,,,-99.99,190.369995,,2013-05-25 13:52:00,
2013-05-25 08:02:00,70.0,52.0,30.07,ESE,114,6.0,8.0,53,-99.99,,,-99.99,190.369995,,2013-05-25 14:02:00,
2013-05-25 08:11:00,71.0,53.0,30.07,ESE,113,7.0,9.0,52,-99.99,,,-99.99,233.610001,,2013-05-25 14:11:00,
2013-05-25 08:22:00,73.0,53.0,30.08,ESE,123,6.0,8.0,50,-99.99,,,-99.99,278.239990,,2013-05-25 14:22:00,
2013-05-25 08:32:00,73.0,53.0,30.08,ESE,123,6.0,8.0,50,-99.99,,,-99.99,278.239990,,2013-05-25 14:32:00,
2013-05-25 08:42:00,74.0,54.0,30.08,SE,143,4.0,7.0,49,-99.99,,,-99.99,323.559998,,2013-05-25 14:42:00,
2013-05-25 08:52:00,75.0,54.0,30.08,SE,145,4.0,8.0,47,-99.99,,,-99.99,370.279999,,2013-05-25 14:52:00,
2013-05-25 09:01:00,75.0,54.0,30.08,SE,145,4.0,8.0,47,-99.99,,,-99.99,370.279999,,2013-05-25 15:01:00,
2013-05-25 09:11:00,75.0,54.0,30.08,South,177,5.0,10.0,46,-99.99,,,-99.99,414.220001,,2013-05-25 15:11:00,
2013-05-25 09:22:00,76.0,54.0,30.08,South,190,5.0,11.0,45,-99.99,,,-99.99,466.519989,,2013-05-25 15:22:00,
2013-05-25 09:33:00,77.0,54.0,30.08,South,188,6.0,13.0,44,-99.99,,,-99.99,510.450012,,2013-05-25 15:33:00,
2013-05-25 09:43:00,77.0,54.0,30.08,South,188,6.0,13.0,44,-99.99,,,-99.99,510.450012,,2013-05-25 15:43:00,
2013-05-25 09:53:00,77.0,54.0,30.08,South,188,6.0,13.0,44,-99.99,,,-99.99,510.450012,,2013-05-25 15:53:00,
2013-05-25 10:03:00,77.0,54.0,30.08,South,188,6.0,13.0,44,-99.99,,,-99.99,510.450012,,2013-05-25 16:03:00,
2013-05-25 10:12:00,78.0,53.0,30.07,South,179,9.0,14.0,42,-99.99,,,-99.99,599.710022,,2013-05-25 16:12:00,
2013-05-25 10:23:00,79.0,53.0,30.07,South,183,6.0,12.0,40,-99.99,,,-99.99,640.849976,,2013-05-25 16:23:00,
2013-05-25 10:32:00,80.0,53.0,30.07,South,171,7.0,15.0,38,-99.99,,,-99.99,677.809998,,2013-05-25 16:32:00,
2013-05-25 10:42:00,80.0,53.0,30.07,South,171,7.0,15.0,38,-99.99,,,-99.99,677.809998,,2013-05-25 16:42:00,
2013-05-25 10:52:00,82.0,52.0,30.06,South,185,4.0,12.0,36,-99.99,,,-99.99,717.559998,,2013-05-25 16:52:00,
2013-05-25 11:02:00,82.0,52.0,30.06,South,185,4.0,12.0,36,-99.99,,,-99.99,717.559998,,2013-05-25 17:02:00,
2013-05-25 11:11:00,83.0,52.0,30.06,SSW,192,7.0,14.0,34,-99.99,,,-99.99,753.820007,,2013-05-25 17:11:00,
2013-05-25 11:22:00,83.0,51.0,30.06,SSW,192,5.0,13.0,33,-99.99,,,-99.99,785.200012,,2013-05-25 17:22:00,
2013-05-25 11:32:00,83.0,51.0,30.06,SSW,192,5.0,13.0,33,-99.99,,,-99.99,785.200012,,2013-05-25 17:32:00,
2013-05-25 11:42:00,83.0,51.0,30.06,SSW,192,5.0,13.0,33,-99.99,,,-99.99,785.200012,,2013-05-25 17:42:00,
2013-05-25 11:52:00,85.0,49.0,30.05,South,185,6.0,13.0,28,-99.99,,,-99.99,816.580017,,2013-05-25 17:52:00,
2013-05-25 12:01:00,85.0,49.0,30.05,South,185,6.0,13.0,28,-99.99,,,-99.99,816.580017,,2013-05-25 18:01:00,
2013-05-25 12:11:00,86.0,48.0,30.04,South,184,4.0,11.0,27,-99.99,,,-99.99,840.289978,,2013-05-25 18:11:00,
2013-05-25 12:21:00,87.0,45.0,30.04,South,184,6.0,16.0,23,-99.99,,,-99.99,876.549988,,2013-05-25 18:21:00,
2013-05-25 12:32:00,87.0,45.0,30.04,South,184,6.0,16.0,23,-99.99,,,-99.99,876.549988,,2013-05-25 18:32:00,
2013-05-25 12:42:00,88.0,45.0,30.03,South,175,8.0,17.0,22,-99.99,,,-99.99,899.559998,,2013-05-25 18:42:00,
2013-05-25 12:52:00,88.0,47.0,30.03,SSE,160,11.0,21.0,23,-99.99,,,-99.99,912.109985,,2013-05-25 18:52:00,
2013-05-25 13:01:00,88.0,47.0,30.03,SSE,160,11.0,21.0,23,-99.99,,,-99.99,912.109985,,2013-05-25 19:01:00,
2013-05-25 13:11:00,89.0,43.0,30.02,South,173,11.0,19.0,20,-99.99,,,-99.99,917.690002,,2013-05-25 19:11:00,
2013-05-25 13:22:00,90.0,37.0,30.01,South,169,14.0,21.0,15,-99.99,,,-99.99,920.479980,,2013-05-25 19:22:00,
2013-05-25 13:32:00,91.0,33.0,30.01,South,178,14.0,23.0,13,-99.99,,,-99.99,921.179993,,2013-05-25 19:32:00,
2013-05-25 13:42:00,91.0,33.0,30.01,South,178,14.0,23.0,13,-99.99,,,-99.99,921.179993,,2013-05-25 19:42:00,
2013-05-25 13:52:00,92.0,33.0,30.00,South,190,15.0,27.0,12,-99.99,,,-99.99,917.690002,,2013-05-25 19:52:00,
2013-05-25 14:02:00,92.0,33.0,30.00,South,190,15.0,27.0,12,-99.99,,,-99.99,917.690002,,2013-05-25 20:02:00,
2013-05-25 14:11:00,92.0,32.0,29.99,SSW,193,15.0,25.0,11,-99.99,,,-99.99,914.900024,,2013-05-25 20:11:00,
2013-05-25 14:22:00,92.0,32.0,29.99,SSW,196,15.0,26.0,11,-99.99,,,-99.99,903.739990,,2013-05-25 20:22:00,
2013-05-25 14:32:00,93.0,32.0,29.99,SSW,202,14.0,26.0,11,-99.99,,,-99.99,887.010010,,2013-05-25 20:32:00,
2013-05-25 14:42:00,93.0,32.0,29.99,SSW,202,14.0,26.0,11,-99.99,,,-99.99,887.010010,,2013-05-25 20:42:00,
2013-05-25 14:52:00,93.0,32.0,29.98,SSW,200,15.0,26.0,11,-99.99,,,-99.99,870.969971,,2013-05-25 20:52:00,
2013-05-25 15:02:00,93.0,32.0,29.98,SSW,200,15.0,26.0,11,-99.99,,,-99.99,870.969971,,2013-05-25 21:02:00,
2013-05-25 15:11:00,93.0,31.0,29.98,SW,236,13.0,51.0,11,-99.99,,,-99.99,842.380005,,2013-05-25 21:11:00,
2013-05-25 15:21:00,93.0,30.0,29.97,WSW,240,12.0,23.0,10,-99.99,,,-99.99,813.789978,,2013-05-25 21:21:00,
2013-05-25 15:33:00,93.0,30.0,29.97,WSW,240,12.0,23.0,10,-99.99,,,-99.99,813.789978,,2013-05-25 21:33:00,
2013-05-25 15:43:00,94.0,30.0,29.97,SW,218,10.0,22.0,10,-99.99,,,-99.99,809.599976,,2013-05-25 21:43:00,
2013-05-25 15:53:00,94.0,29.0,29.96,SW,234,12.0,23.0,9,-99.99,,,-99.99,778.919983,,2013-05-25 21:53:00,
2013-05-25 16:03:00,94.0,29.0,29.96,SW,234,12.0,23.0,9,-99.99,,,-99.99,778.919983,,2013-05-25 22:03:00,
2013-05-25 16:12:00,94.0,28.0,29.95,WSW,237,11.0,21.0,9,-99.99,,,-99.99,730.809998,,2013-05-25 22:12:00,
2013-05-25 16:22:00,95.0,28.0,29.95,WSW,249,15.0,28.0,9,-99.99,,,-99.99,617.840027,,2013-05-25 22:22:00,
2013-05-25 16:32:00,94.0,28.0,29.94,WSW,249,17.0,28.0,9,-99.99,,,-99.99,668.739990,,2013-05-25 22:32:00,
2013-05-25 16:42:00,94.0,28.0,29.94,WSW,249,17.0,28.0,9,-99.99,,,-99.99,668.739990,,2013-05-25 22:42:00,
2013-05-25 16:52:00,94.0,28.0,29.93,WSW,248,16.0,28.0,9,-99.99,,,-99.99,589.250000,,2013-05-25 22:52:00,
2013-05-25 17:02:00,94.0,28.0,29.93,WSW,248,16.0,28.0,9,-99.99,,,-99.99,589.250000,,2013-05-25 23:02:00,
2013-05-25 17:12:00,95.0,28.0,29.93,WSW,250,16.0,27.0,9,-99.99,,,-99.99,208.500000,,2013-05-25 23:12:00,
2013-05-25 17:22:00,95.0,28.0,29.92,SW,224,16.0,30.0,9,-99.99,,,-99.99,378.649994,,2013-05-25 23:22:00,
2013-05-25 17:32:00,95.0,27.0,29.92,WSW,251,15.0,27.0,9,-99.99,,,-99.99,495.109985,,2013-05-25 23:32:00,
2013-05-25 17:42:00,95.0,27.0,29.92,WSW,251,15.0,27.0,9,-99.99,,,-99.99,495.109985,,2013-05-25 23:42:00,
2013-05-25 17:52:00,94.0,27.0,29.92,West,262,14.0,24.0,8,-99.99,,,-99.99,449.779999,,2013-05-25 23:52:00,
2013-05-25 18:01:00,94.0,27.0,29.92,West,262,14.0,24.0,8,-99.99,,,-99.99,449.779999,,2013-05-26 00:01:00,
2013-05-25 18:11:00,94.0,26.0,29.91,WSW,244,14.0,24.0,8,-99.99,,,-99.99,400.970001,,2013-05-26 00:11:00,
2013-05-25 18:22:00,94.0,25.0,29.91,West,261,13.0,25.0,8,-99.99,,,-99.99,284.510010,,2013-05-26 00:22:00,
2013-05-25 18:31:00,94.0,25.0,29.91,West,261,13.0,25.0,8,-99.99,,,-99.99,284.510010,,2013-05-26 00:31:00,
2013-05-25 18:42:00,94.0,25.0,29.91,West,261,13.0,25.0,8,-99.99,,,-99.99,284.510010,,2013-05-26 00:42:00,
2013-05-25 18:52:00,93.0,22.0,29.90,WSW,246,15.0,28.0,7,-99.99,,,-99.99,37.660000,,2013-05-26 00:52:00,
2013-05-25 19:01:00,93.0,22.0,29.90,WSW,246,15.0,28.0,7,-99.99,,,-99.99,37.660000,,2013-05-26 01:01:00,
2013-05-25 19:11:00,93.0,21.0,29.90,WSW,244,15.0,27.0,7,-99.99,,,-99.99,145.050003,,2013-05-26 01:11:00,
2013-05-25 19:21:00,93.0,21.0,29.90,WSW,237,10.0,25.0,7,-99.99,,,-99.99,175.729996,,2013-05-26 01:21:00,
2013-05-25 19:32:00,93.0,21.0,29.91,WSW,247,12.0,21.0,7,-99.99,,,-99.99,132.490005,,2013-05-26 01:32:00,
2013-05-25 19:42:00,93.0,21.0,29.91,WSW,247,12.0,21.0,7,-99.99,,,-99.99,132.490005,,2013-05-26 01:42:00,
2013-05-25 19:53:00,92.0,21.0,29.91,SW,233,11.0,20.0,7,-99.99,,,-99.99,84.379997,,2013-05-26 01:53:00,
2013-05-25 20:02:00,92.0,21.0,29.91,SW,233,11.0,20.0,7,-99.99,,,-99.99,84.379997,,2013-05-26 02:02:00,
2013-05-25 20:11:00,91.0,21.0,29.91,WSW,242,13.0,20.0,7,-99.99,,,-99.99,39.750000,,2013-05-26 02:11:00,
2013-05-25 20:21:00,91.0,21.0,29.91,WSW,241,11.0,19.0,7,-99.99,,,-99.99,11.850000,,2013-05-26 02:21:00,
2013-05-25 20:32:00,89.0,21.0,29.92,WSW,237,8.0,11.0,8,-99.99,,,-99.99,2.090000,,2013-05-26 02:32:00,
2013-05-25 20:42:00,89.0,21.0,29.92,WSW,237,8.0,11.0,8,-99.99,,,-99.99,2.090000,,2013-05-26 02:42:00,
2013-05-25 20:52:00,87.0,20.0,29.92,SW,217,6.0,8.0,8,-99.99,,,-99.99,0.000000,,2013-05-26 02:52:00,
2013-05-25 21:01:00,87.0,20.0,29.92,SW,217,6.0,8.0,8,-99.99,,,-99.99,0.000000,,2013-05-26 03:01:00,
2013-05-25 21:11:00,87.0,20.0,29.92,SW,219,7.0,9.0,8,-99.99,,,-99.99,0.000000,,2013-05-26 03:11:00,
2013-05-25 21:21:00,86.0,20.0,29.92,SSW,213,6.0,7.0,8,-99.99,,,-99.99,0.000000,,2013-05-26 03:21:00,
2013-05-25 21:33:00,86.0,20.0,29.92,SSW,213,6.0,7.0,8,-99.99,,,-99.99,0.000000,,2013-05-26 03:33:00,
2013-05-25 21:42:00,85.0,20.0,29.92,SSW,206,6.0,8.0,9,-99.99,,,-99.99,0.000000,,2013-05-26 03:42:00,
2013-05-25 21:53:00,82.0,19.0,29.93,SW,220,7.0,11.0,9,-99.99,,,-99.99,0.000000,,2013-05-26 03:53:00,
2013-05-25 22:02:00,82.0,19.0,29.93,SW,220,7.0,11.0,9,-99.99,,,-99.99,0.000000,,2013-05-26 04:02:00,
2013-05-25 22:12:00,83.0,21.0,29.94,WNW,286,9.0,16.0,10,-99.99,,,-99.99,0.000000,,2013-05-26 04:12:00,
2013-05-25 22:23:00,87.0,23.0,29.95,WNW,285,11.0,18.0,9,-99.99,,,-99.99,0.000000,,2013-05-26 04:23:00,
2013-05-25 22:33:00,87.0,23.0,29.95,WNW,283,12.0,18.0,9,-99.99,,,-99.99,0.000000,,2013-05-26 04:33:00,
2013-05-25 22:42:00,87.0,23.0,29.95,WNW,283,12.0,18.0,9,-99.99,,,-99.99,0.000000,,2013-05-26 04:42:00,
2013-05-25 22:52:00,86.0,23.0,29.95,WNW,286,11.0,17.0,10,-99.99,,,-99.99,0.000000,,2013-05-26 04:52:00,
2013-05-25 23:02:00,86.0,23.0,29.95,WNW,286,11.0,17.0,10,-99.99,,,-99.99,0.000000,,2013-05-26 05:02:00,
2013-05-25 23:12:00,86.0,24.0,29.95,WNW,290,13.0,21.0,10,-99.99,,,-99.99,0.000000,,2013-05-26 05:12:00,
2013-05-25 23:22:00,86.0,24.0,29.95,WNW,288,15.0,27.0,10,-99.99,,,-99.99,0.000000,,2013-05-26 05:22:00,
2013-05-25 23:32:00,86.0,23.0,29.96,WNW,288,15.0,24.0,10,-99.99,,,-99.99,0.000000,,2013-05-26 05:32:00,
2013-05-25 23:42:00,86.0,23.0,29.96,WNW,288,15.0,24.0,10,-99.99,,,-99.99,0.000000,,2013-05-26 05:42:00,
2013-05-25 23:52:00,85.0,23.0,29.96,WNW,292,13.0,19.0,9,-99.99,,,-99.99,0.000000,,2013-05-26 05:52:00,